sensor_id;sensor_type;location;lat;lon;timestamp;P1;durP1;ratioP1;P2;durP2;ratioP2
35632;SDS011;21754;48.216;-1.628;2022-07-10T00:00:27;1.35;;;1.25;;
35632;SDS011;21754;48.216;-1.628;2022-07-10T00:02:53;2.88;;;1.20;;
35632;SDS011;21754;48.216;-1.628;2022-07-10T00:05:19;3.10;;;1.20;;
35632;SDS011;21754;48.216;-1.628;2022-07-10T00:07:46;1.20;;;1.20;;
35632;SDS011;21754;48.216;-1.628;2022-07-10T00:10:12;1.90;;;1.20;;
35632;SDS011;21754;48.216;-1.628;2022-07-10T00:12:37;1.55;;;1.33;;
35632;SDS011;21754;48.216;-1.628;2022-07-10T00:15:03;2.55;;;1.42;;
35632;SDS011;21754;48.216;-1.628;2022-07-10T00:17:30;3.90;;;1.08;;
35632;SDS011;21754;48.216;-1.628;2022-07-10T00:19:56;1.77;;;1.33;;
35632;SDS011;21754;48.216;-1.628;2022-07-10T00:22:22;1.30;;;1.20;;
35632;SDS011;21754;48.216;-1.628;2022-07-10T00:24:48;1.00;;;1.00;;
35632;SDS011;21754;48.216;-1.628;2022-07-10T00:27:15;1.50;;;1.40;;
35632;SDS011;21754;48.216;-1.628;2022-07-10T00:29:44;3.70;;;1.20;;
35632;SDS011;21754;48.216;-1.628;2022-07-10T00:32:12;2.40;;;1.88;;
35632;SDS011;21754;48.216;-1.628;2022-07-10T00:34:37;1.35;;;1.27;;
35632;SDS011;21754;48.216;-1.628;2022-07-10T00:37:03;1.25;;;1.15;;
35632;SDS011;21754;48.216;-1.628;2022-07-10T00:39:29;2.25;;;1.50;;
35632;SDS011;21754;48.216;-1.628;2022-07-10T00:42:05;1.58;;;1.48;;
35632;SDS011;21754;48.216;-1.628;2022-07-10T00:44:32;2.90;;;1.45;;
35632;SDS011;21754;48.216;-1.628;2022-07-10T00:46:59;1.50;;;1.30;;
35632;SDS011;21754;48.216;-1.628;2022-07-10T00:49:24;2.05;;;1.88;;
35632;SDS011;21754;48.216;-1.628;2022-07-10T00:51:50;2.13;;;1.65;;
35632;SDS011;21754;48.216;-1.628;2022-07-10T00:54:16;1.63;;;1.50;;
35632;SDS011;21754;48.216;-1.628;2022-07-10T00:56:42;1.67;;;1.58;;
35632;SDS011;21754;48.216;-1.628;2022-07-10T00:59:08;1.83;;;1.73;;
35632;SDS011;21754;48.216;-1.628;2022-07-10T01:01:34;2.40;;;2.20;;
35632;SDS011;21754;48.216;-1.628;2022-07-10T01:04:01;1.88;;;1.77;;
35632;SDS011;21754;48.216;-1.628;2022-07-10T01:06:27;4.85;;;1.67;;
35632;SDS011;21754;48.216;-1.628;2022-07-10T01:08:52;2.80;;;2.53;;
35632;SDS011;21754;48.216;-1.628;2022-07-10T01:11:19;2.67;;;2.13;;
35632;SDS011;21754;48.216;-1.628;2022-07-10T01:13:46;4.75;;;1.88;;
35632;SDS011;21754;48.216;-1.628;2022-07-10T01:16:12;1.95;;;1.83;;
35632;SDS011;21754;48.216;-1.628;2022-07-10T01:18:38;2.55;;;1.60;;
35632;SDS011;21754;48.216;-1.628;2022-07-10T01:21:04;4.65;;;1.92;;
35632;SDS011;21754;48.216;-1.628;2022-07-10T01:23:30;2.40;;;1.80;;
35632;SDS011;21754;48.216;-1.628;2022-07-10T01:25:56;1.73;;;1.60;;
35632;SDS011;21754;48.216;-1.628;2022-07-10T01:28:22;1.95;;;1.85;;
35632;SDS011;21754;48.216;-1.628;2022-07-10T01:30:48;2.53;;;1.98;;
35632;SDS011;21754;48.216;-1.628;2022-07-10T01:33:14;2.13;;;1.98;;
35632;SDS011;21754;48.216;-1.628;2022-07-10T01:35:40;1.70;;;1.60;;
35632;SDS011;21754;48.216;-1.628;2022-07-10T01:38:06;1.98;;;1.83;;
35632;SDS011;21754;48.216;-1.628;2022-07-10T01:40:32;4.70;;;1.77;;
35632;SDS011;21754;48.216;-1.628;2022-07-10T01:42:57;3.05;;;2.17;;
35632;SDS011;21754;48.216;-1.628;2022-07-10T01:45:23;2.30;;;2.10;;
35632;SDS011;21754;48.216;-1.628;2022-07-10T01:47:49;1.88;;;1.77;;
35632;SDS011;21754;48.216;-1.628;2022-07-10T01:50:15;2.00;;;1.83;;
35632;SDS011;21754;48.216;-1.628;2022-07-10T01:52:41;2.45;;;2.03;;
35632;SDS011;21754;48.216;-1.628;2022-07-10T01:55:06;2.47;;;2.28;;
35632;SDS011;21754;48.216;-1.628;2022-07-10T01:57:32;2.20;;;2.00;;
35632;SDS011;21754;48.216;-1.628;2022-07-10T01:59:58;2.22;;;1.92;;
35632;SDS011;21754;48.216;-1.628;2022-07-10T02:02:24;8.20;;;2.08;;
35632;SDS011;21754;48.216;-1.628;2022-07-10T02:04:50;4.00;;;2.00;;
35632;SDS011;21754;48.216;-1.628;2022-07-10T02:07:16;8.60;;;2.70;;
35632;SDS011;21754;48.216;-1.628;2022-07-10T02:12:10;2.58;;;1.70;;
35632;SDS011;21754;48.216;-1.628;2022-07-10T02:14:38;4.40;;;1.90;;
35632;SDS011;21754;48.216;-1.628;2022-07-10T02:17:05;2.83;;;1.58;;
35632;SDS011;21754;48.216;-1.628;2022-07-10T02:19:31;2.80;;;2.07;;
35632;SDS011;21754;48.216;-1.628;2022-07-10T02:21:57;2.28;;;2.08;;
35632;SDS011;21754;48.216;-1.628;2022-07-10T02:24:23;2.03;;;1.92;;
35632;SDS011;21754;48.216;-1.628;2022-07-10T02:26:49;2.53;;;2.20;;
35632;SDS011;21754;48.216;-1.628;2022-07-10T02:29:15;3.40;;;2.85;;
35632;SDS011;21754;48.216;-1.628;2022-07-10T02:31:41;1.83;;;1.73;;
35632;SDS011;21754;48.216;-1.628;2022-07-10T02:34:10;3.03;;;2.20;;
35632;SDS011;21754;48.216;-1.628;2022-07-10T02:36:37;1.92;;;1.83;;
35632;SDS011;21754;48.216;-1.628;2022-07-10T02:39:03;3.83;;;1.98;;
35632;SDS011;21754;48.216;-1.628;2022-07-10T02:41:30;4.05;;;2.17;;
35632;SDS011;21754;48.216;-1.628;2022-07-10T02:43:55;2.35;;;2.15;;
35632;SDS011;21754;48.216;-1.628;2022-07-10T02:46:21;2.67;;;2.47;;
35632;SDS011;21754;48.216;-1.628;2022-07-10T02:48:47;3.45;;;2.35;;
35632;SDS011;21754;48.216;-1.628;2022-07-10T02:51:13;2.30;;;2.15;;
35632;SDS011;21754;48.216;-1.628;2022-07-10T02:53:38;2.33;;;1.70;;
35632;SDS011;21754;48.216;-1.628;2022-07-10T02:56:04;2.40;;;2.30;;
35632;SDS011;21754;48.216;-1.628;2022-07-10T02:58:31;2.88;;;2.45;;
35632;SDS011;21754;48.216;-1.628;2022-07-10T03:00:58;4.60;;;2.00;;
35632;SDS011;21754;48.216;-1.628;2022-07-10T03:03:24;3.70;;;3.08;;
35632;SDS011;21754;48.216;-1.628;2022-07-10T03:05:49;2.53;;;2.33;;
35632;SDS011;21754;48.216;-1.628;2022-07-10T03:08:15;3.13;;;2.47;;
35632;SDS011;21754;48.216;-1.628;2022-07-10T03:10:41;3.60;;;2.20;;
35632;SDS011;21754;48.216;-1.628;2022-07-10T03:13:06;3.58;;;2.50;;
35632;SDS011;21754;48.216;-1.628;2022-07-10T03:15:32;4.78;;;2.83;;
35632;SDS011;21754;48.216;-1.628;2022-07-10T03:17:58;3.03;;;2.20;;
35632;SDS011;21754;48.216;-1.628;2022-07-10T03:20:24;2.53;;;2.35;;
35632;SDS011;21754;48.216;-1.628;2022-07-10T03:22:49;3.35;;;1.98;;
35632;SDS011;21754;48.216;-1.628;2022-07-10T03:25:15;2.42;;;2.22;;
35632;SDS011;21754;48.216;-1.628;2022-07-10T03:27:41;2.63;;;2.30;;
35632;SDS011;21754;48.216;-1.628;2022-07-10T03:30:07;2.58;;;2.40;;
35632;SDS011;21754;48.216;-1.628;2022-07-10T03:32:33;2.53;;;2.33;;
35632;SDS011;21754;48.216;-1.628;2022-07-10T03:34:59;2.53;;;2.33;;
35632;SDS011;21754;48.216;-1.628;2022-07-10T03:37:25;3.75;;;2.28;;
35632;SDS011;21754;48.216;-1.628;2022-07-10T03:39:51;2.53;;;2.33;;
35632;SDS011;21754;48.216;-1.628;2022-07-10T03:42:16;2.95;;;2.28;;
35632;SDS011;21754;48.216;-1.628;2022-07-10T03:44:42;2.67;;;2.10;;
35632;SDS011;21754;48.216;-1.628;2022-07-10T03:47:08;4.55;;;2.38;;
35632;SDS011;21754;48.216;-1.628;2022-07-10T03:49:33;2.17;;;2.08;;
35632;SDS011;21754;48.216;-1.628;2022-07-10T03:51:59;2.30;;;2.10;;
35632;SDS011;21754;48.216;-1.628;2022-07-10T03:54:27;4.30;;;2.60;;
35632;SDS011;21754;48.216;-1.628;2022-07-10T03:56:54;2.65;;;2.45;;
35632;SDS011;21754;48.216;-1.628;2022-07-10T03:59:42;2.70;;;2.50;;
35632;SDS011;21754;48.216;-1.628;2022-07-10T04:02:08;3.00;;;2.38;;
35632;SDS011;21754;48.216;-1.628;2022-07-10T04:04:33;2.58;;;2.38;;
35632;SDS011;21754;48.216;-1.628;2022-07-10T04:06:59;4.60;;;2.45;;
35632;SDS011;21754;48.216;-1.628;2022-07-10T04:09:25;4.80;;;2.40;;
35632;SDS011;21754;48.216;-1.628;2022-07-10T04:11:51;2.22;;;2.13;;
35632;SDS011;21754;48.216;-1.628;2022-07-10T04:14:16;2.58;;;2.17;;
35632;SDS011;21754;48.216;-1.628;2022-07-10T04:16:42;2.58;;;2.38;;
35632;SDS011;21754;48.216;-1.628;2022-07-10T04:19:08;5.65;;;2.38;;
35632;SDS011;21754;48.216;-1.628;2022-07-10T04:21:33;2.85;;;1.88;;
35632;SDS011;21754;48.216;-1.628;2022-07-10T04:23:59;12.18;;;2.13;;
35632;SDS011;21754;48.216;-1.628;2022-07-10T04:26:25;7.18;;;2.38;;
35632;SDS011;21754;48.216;-1.628;2022-07-10T04:28:51;3.58;;;3.13;;
35632;SDS011;21754;48.216;-1.628;2022-07-10T04:31:16;2.50;;;1.85;;
35632;SDS011;21754;48.216;-1.628;2022-07-10T04:33:42;2.35;;;2.15;;
35632;SDS011;21754;48.216;-1.628;2022-07-10T04:36:08;2.53;;;2.33;;
35632;SDS011;21754;48.216;-1.628;2022-07-10T04:38:33;1.95;;;1.77;;
35632;SDS011;21754;48.216;-1.628;2022-07-10T04:40:59;4.35;;;2.58;;
35632;SDS011;21754;48.216;-1.628;2022-07-10T04:43:25;1.75;;;1.63;;
35632;SDS011;21754;48.216;-1.628;2022-07-10T04:45:51;2.58;;;2.38;;
35632;SDS011;21754;48.216;-1.628;2022-07-10T04:48:16;3.15;;;2.30;;
35632;SDS011;21754;48.216;-1.628;2022-07-10T04:50:42;2.65;;;1.92;;
35632;SDS011;21754;48.216;-1.628;2022-07-10T04:53:08;3.08;;;2.30;;
35632;SDS011;21754;48.216;-1.628;2022-07-10T04:55:33;2.05;;;1.90;;
35632;SDS011;21754;48.216;-1.628;2022-07-10T04:57:59;2.63;;;2.15;;
35632;SDS011;21754;48.216;-1.628;2022-07-10T05:00:25;3.60;;;1.88;;
35632;SDS011;21754;48.216;-1.628;2022-07-10T05:02:51;2.10;;;2.00;;
35632;SDS011;21754;48.216;-1.628;2022-07-10T05:05:16;2.55;;;2.35;;
35632;SDS011;21754;48.216;-1.628;2022-07-10T05:07:42;2.42;;;2.00;;
35632;SDS011;21754;48.216;-1.628;2022-07-10T05:10:08;2.13;;;2.03;;
35632;SDS011;21754;48.216;-1.628;2022-07-10T05:12:34;2.60;;;2.38;;
35632;SDS011;21754;48.216;-1.628;2022-07-10T05:14:59;2.30;;;2.10;;
35632;SDS011;21754;48.216;-1.628;2022-07-10T05:17:25;2.85;;;2.28;;
35632;SDS011;21754;48.216;-1.628;2022-07-10T05:19:56;4.78;;;2.63;;
35632;SDS011;21754;48.216;-1.628;2022-07-10T05:22:22;2.03;;;1.92;;
35632;SDS011;21754;48.216;-1.628;2022-07-10T05:24:49;2.38;;;2.17;;
35632;SDS011;21754;48.216;-1.628;2022-07-10T05:27:16;2.13;;;1.90;;
35632;SDS011;21754;48.216;-1.628;2022-07-10T05:32:09;2.65;;;2.45;;
35632;SDS011;21754;48.216;-1.628;2022-07-10T05:34:35;2.28;;;1.98;;
35632;SDS011;21754;48.216;-1.628;2022-07-10T05:37:00;2.30;;;2.08;;
35632;SDS011;21754;48.216;-1.628;2022-07-10T05:39:26;2.05;;;1.95;;
35632;SDS011;21754;48.216;-1.628;2022-07-10T05:41:52;2.45;;;2.25;;
35632;SDS011;21754;48.216;-1.628;2022-07-10T05:44:19;2.78;;;2.50;;
35632;SDS011;21754;48.216;-1.628;2022-07-10T05:46:45;4.80;;;2.08;;
35632;SDS011;21754;48.216;-1.628;2022-07-10T05:49:11;3.83;;;2.00;;
35632;SDS011;21754;48.216;-1.628;2022-07-10T05:51:37;2.25;;;2.13;;
35632;SDS011;21754;48.216;-1.628;2022-07-10T05:54:03;2.05;;;1.95;;
35632;SDS011;21754;48.216;-1.628;2022-07-10T05:56:28;5.13;;;1.95;;
35632;SDS011;21754;48.216;-1.628;2022-07-10T05:58:54;3.20;;;2.15;;
35632;SDS011;21754;48.216;-1.628;2022-07-10T06:01:21;4.30;;;2.08;;
35632;SDS011;21754;48.216;-1.628;2022-07-10T06:03:47;5.82;;;2.20;;
35632;SDS011;21754;48.216;-1.628;2022-07-10T06:06:12;2.78;;;1.92;;
35632;SDS011;21754;48.216;-1.628;2022-07-10T06:08:42;2.72;;;1.80;;
35632;SDS011;21754;48.216;-1.628;2022-07-10T06:11:08;2.23;;;1.40;;
35632;SDS011;21754;48.216;-1.628;2022-07-10T06:13:34;3.90;;;1.63;;
35632;SDS011;21754;48.216;-1.628;2022-07-10T06:15:59;1.73;;;1.63;;
35632;SDS011;21754;48.216;-1.628;2022-07-10T06:18:25;7.28;;;1.50;;
35632;SDS011;21754;48.216;-1.628;2022-07-10T06:20:51;2.30;;;2.17;;
35632;SDS011;21754;48.216;-1.628;2022-07-10T06:23:17;1.52;;;1.10;;
35632;SDS011;21754;48.216;-1.628;2022-07-10T06:25:42;1.52;;;1.42;;
35632;SDS011;21754;48.216;-1.628;2022-07-10T06:28:08;1.70;;;1.00;;
35632;SDS011;21754;48.216;-1.628;2022-07-10T06:30:33;0.95;;;0.95;;
35632;SDS011;21754;48.216;-1.628;2022-07-10T06:32:59;7.28;;;1.33;;
35632;SDS011;21754;48.216;-1.628;2022-07-10T06:35:25;3.65;;;1.13;;
35632;SDS011;21754;48.216;-1.628;2022-07-10T06:37:50;1.55;;;1.02;;
35632;SDS011;21754;48.216;-1.628;2022-07-10T06:40:16;1.38;;;0.88;;
35632;SDS011;21754;48.216;-1.628;2022-07-10T06:42:45;1.55;;;0.75;;
35632;SDS011;21754;48.216;-1.628;2022-07-10T06:45:10;0.70;;;0.70;;
35632;SDS011;21754;48.216;-1.628;2022-07-10T06:47:36;1.10;;;1.00;;
35632;SDS011;21754;48.216;-1.628;2022-07-10T06:50:20;0.70;;;0.70;;
35632;SDS011;21754;48.216;-1.628;2022-07-10T06:52:47;1.40;;;0.80;;
35632;SDS011;21754;48.216;-1.628;2022-07-10T06:55:13;0.80;;;0.80;;
35632;SDS011;21754;48.216;-1.628;2022-07-10T06:57:39;0.90;;;0.90;;
35632;SDS011;21754;48.216;-1.628;2022-07-10T07:00:05;1.52;;;0.70;;
35632;SDS011;21754;48.216;-1.628;2022-07-10T07:02:32;2.55;;;0.95;;
35632;SDS011;21754;48.216;-1.628;2022-07-10T07:04:57;1.08;;;1.00;;
35632;SDS011;21754;48.216;-1.628;2022-07-10T07:07:23;2.72;;;1.10;;
35632;SDS011;21754;48.216;-1.628;2022-07-10T07:09:49;0.63;;;0.63;;
35632;SDS011;21754;48.216;-1.628;2022-07-10T07:12:15;1.75;;;0.98;;
35632;SDS011;21754;48.216;-1.628;2022-07-10T07:14:42;1.45;;;0.98;;
35632;SDS011;21754;48.216;-1.628;2022-07-10T07:17:08;2.38;;;0.85;;
35632;SDS011;21754;48.216;-1.628;2022-07-10T07:22:21;1.35;;;0.82;;
35632;SDS011;21754;48.216;-1.628;2022-07-10T07:25:07;1.00;;;0.90;;
35632;SDS011;21754;48.216;-1.628;2022-07-10T07:27:34;0.75;;;0.70;;
35632;SDS011;21754;48.216;-1.628;2022-07-10T07:30:04;3.60;;;1.25;;
35632;SDS011;21754;48.216;-1.628;2022-07-10T07:32:36;1.38;;;1.00;;
35632;SDS011;21754;48.216;-1.628;2022-07-10T07:35:02;3.20;;;0.68;;
35632;SDS011;21754;48.216;-1.628;2022-07-10T07:37:42;2.15;;;0.60;;
35632;SDS011;21754;48.216;-1.628;2022-07-10T07:40:13;0.73;;;0.70;;
35632;SDS011;21754;48.216;-1.628;2022-07-10T07:42:40;0.70;;;0.60;;
35632;SDS011;21754;48.216;-1.628;2022-07-10T07:45:06;3.85;;;1.00;;
35632;SDS011;21754;48.216;-1.628;2022-07-10T07:47:43;0.52;;;0.52;;
35632;SDS011;21754;48.216;-1.628;2022-07-10T07:50:13;1.23;;;0.80;;
35632;SDS011;21754;48.216;-1.628;2022-07-10T07:52:40;2.67;;;1.27;;
35632;SDS011;21754;48.216;-1.628;2022-07-10T07:55:06;0.70;;;0.70;;
35632;SDS011;21754;48.216;-1.628;2022-07-10T07:57:32;4.43;;;0.63;;
35632;SDS011;21754;48.216;-1.628;2022-07-10T07:59:58;0.70;;;0.60;;
35632;SDS011;21754;48.216;-1.628;2022-07-10T08:02:23;2.03;;;0.63;;
35632;SDS011;21754;48.216;-1.628;2022-07-10T08:04:49;2.72;;;0.60;;
35632;SDS011;21754;48.216;-1.628;2022-07-10T08:07:15;0.77;;;0.50;;
35632;SDS011;21754;48.216;-1.628;2022-07-10T08:09:40;1.27;;;0.50;;
35632;SDS011;21754;48.216;-1.628;2022-07-10T08:12:06;2.50;;;0.73;;
35632;SDS011;21754;48.216;-1.628;2022-07-10T08:14:32;1.58;;;0.80;;
35632;SDS011;21754;48.216;-1.628;2022-07-10T08:16:57;0.73;;;0.73;;
35632;SDS011;21754;48.216;-1.628;2022-07-10T08:19:23;1.15;;;0.60;;
35632;SDS011;21754;48.216;-1.628;2022-07-10T08:21:50;7.25;;;2.05;;
35632;SDS011;21754;48.216;-1.628;2022-07-10T08:24:15;1.73;;;0.52;;
35632;SDS011;21754;48.216;-1.628;2022-07-10T08:26:41;0.50;;;0.50;;
35632;SDS011;21754;48.216;-1.628;2022-07-10T08:29:06;1.58;;;0.77;;
35632;SDS011;21754;48.216;-1.628;2022-07-10T08:31:32;1.52;;;0.70;;
35632;SDS011;21754;48.216;-1.628;2022-07-10T08:33:58;0.50;;;0.50;;
35632;SDS011;21754;48.216;-1.628;2022-07-10T08:36:25;2.75;;;0.50;;
35632;SDS011;21754;48.216;-1.628;2022-07-10T08:38:51;3.15;;;0.60;;
35632;SDS011;21754;48.216;-1.628;2022-07-10T08:41:20;3.25;;;0.68;;
35632;SDS011;21754;48.216;-1.628;2022-07-10T08:43:50;0.50;;;0.50;;
35632;SDS011;21754;48.216;-1.628;2022-07-10T08:46:16;0.60;;;0.57;;
35632;SDS011;21754;48.216;-1.628;2022-07-10T08:48:44;1.35;;;0.60;;
35632;SDS011;21754;48.216;-1.628;2022-07-10T08:51:12;0.77;;;0.65;;
35632;SDS011;21754;48.216;-1.628;2022-07-10T08:53:54;1.38;;;0.60;;
35632;SDS011;21754;48.216;-1.628;2022-07-10T08:58:47;0.60;;;0.60;;
35632;SDS011;21754;48.216;-1.628;2022-07-10T09:01:16;5.00;;;0.50;;
35632;SDS011;21754;48.216;-1.628;2022-07-10T09:03:48;1.65;;;0.63;;
35632;SDS011;21754;48.216;-1.628;2022-07-10T09:06:17;2.50;;;0.80;;
35632;SDS011;21754;48.216;-1.628;2022-07-10T09:09:00;0.50;;;0.50;;
35632;SDS011;21754;48.216;-1.628;2022-07-10T09:11:30;5.63;;;0.60;;
35632;SDS011;21754;48.216;-1.628;2022-07-10T09:13:57;1.38;;;0.80;;
35632;SDS011;21754;48.216;-1.628;2022-07-10T09:16:24;0.75;;;0.75;;
35632;SDS011;21754;48.216;-1.628;2022-07-10T09:18:50;0.75;;;0.70;;
35632;SDS011;21754;48.216;-1.628;2022-07-10T09:21:17;3.40;;;0.63;;
35632;SDS011;21754;48.216;-1.628;2022-07-10T09:23:42;3.72;;;0.65;;
35632;SDS011;21754;48.216;-1.628;2022-07-10T09:26:08;3.38;;;0.65;;
35632;SDS011;21754;48.216;-1.628;2022-07-10T09:28:34;1.48;;;0.80;;
35632;SDS011;21754;48.216;-1.628;2022-07-10T09:30:59;2.22;;;0.63;;
35632;SDS011;21754;48.216;-1.628;2022-07-10T09:33:25;4.55;;;1.00;;
35632;SDS011;21754;48.216;-1.628;2022-07-10T09:43:56;1.15;;;1.02;;
35632;SDS011;21754;48.216;-1.628;2022-07-10T09:49:12;3.03;;;0.73;;
35632;SDS011;21754;48.216;-1.628;2022-07-10T09:51:42;0.98;;;0.90;;
35632;SDS011;21754;48.216;-1.628;2022-07-10T09:54:09;0.82;;;0.75;;
35632;SDS011;21754;48.216;-1.628;2022-07-10T09:56:49;1.88;;;0.80;;
35632;SDS011;21754;48.216;-1.628;2022-07-10T09:59:20;1.38;;;0.70;;
35632;SDS011;21754;48.216;-1.628;2022-07-10T10:01:47;0.80;;;0.80;;
35632;SDS011;21754;48.216;-1.628;2022-07-10T10:04:14;0.80;;;0.80;;
35632;SDS011;21754;48.216;-1.628;2022-07-10T10:06:42;1.92;;;0.70;;
35632;SDS011;21754;48.216;-1.628;2022-07-10T10:09:10;1.92;;;0.70;;
35632;SDS011;21754;48.216;-1.628;2022-07-10T10:11:41;0.70;;;0.70;;
35632;SDS011;21754;48.216;-1.628;2022-07-10T10:14:08;0.73;;;0.73;;
35632;SDS011;21754;48.216;-1.628;2022-07-10T10:16:35;1.23;;;0.65;;
35632;SDS011;21754;48.216;-1.628;2022-07-10T10:19:04;1.15;;;0.80;;
35632;SDS011;21754;48.216;-1.628;2022-07-10T10:21:53;1.77;;;0.70;;
35632;SDS011;21754;48.216;-1.628;2022-07-10T10:24:19;2.40;;;0.80;;
35632;SDS011;21754;48.216;-1.628;2022-07-10T10:26:46;0.73;;;0.70;;
35632;SDS011;21754;48.216;-1.628;2022-07-10T10:29:12;1.75;;;0.93;;
35632;SDS011;21754;48.216;-1.628;2022-07-10T10:31:38;8.27;;;1.00;;
35632;SDS011;21754;48.216;-1.628;2022-07-10T10:34:05;2.60;;;0.90;;
35632;SDS011;21754;48.216;-1.628;2022-07-10T10:39:10;0.93;;;0.80;;
35632;SDS011;21754;48.216;-1.628;2022-07-10T10:46:52;3.58;;;1.00;;
35632;SDS011;21754;48.216;-1.628;2022-07-10T10:49:22;0.98;;;0.70;;
35632;SDS011;21754;48.216;-1.628;2022-07-10T10:51:59;0.95;;;0.82;;
35632;SDS011;21754;48.216;-1.628;2022-07-10T10:54:27;1.58;;;0.75;;
35632;SDS011;21754;48.216;-1.628;2022-07-10T10:57:11;0.80;;;0.80;;
35632;SDS011;21754;48.216;-1.628;2022-07-10T10:59:53;2.30;;;1.00;;
35632;SDS011;21754;48.216;-1.628;2022-07-10T11:02:25;0.55;;;0.55;;
35632;SDS011;21754;48.216;-1.628;2022-07-10T11:10:25;0.80;;;0.75;;
35632;SDS011;21754;48.216;-1.628;2022-07-10T11:13:10;1.95;;;0.82;;
35632;SDS011;21754;48.216;-1.628;2022-07-10T11:15:46;1.33;;;1.10;;
35632;SDS011;21754;48.216;-1.628;2022-07-10T11:18:17;1.77;;;0.80;;
35632;SDS011;21754;48.216;-1.628;2022-07-10T11:25:59;1.40;;;0.70;;
35632;SDS011;21754;48.216;-1.628;2022-07-10T11:28:44;0.70;;;0.70;;
35632;SDS011;21754;48.216;-1.628;2022-07-10T11:31:11;2.93;;;0.80;;
35632;SDS011;21754;48.216;-1.628;2022-07-10T11:33:40;4.55;;;0.80;;
35632;SDS011;21754;48.216;-1.628;2022-07-10T11:36:12;1.58;;;0.90;;
35632;SDS011;21754;48.216;-1.628;2022-07-10T11:38:43;0.82;;;0.82;;
35632;SDS011;21754;48.216;-1.628;2022-07-10T11:41:16;0.63;;;0.63;;
35632;SDS011;21754;48.216;-1.628;2022-07-10T11:43:51;0.80;;;0.80;;
35632;SDS011;21754;48.216;-1.628;2022-07-10T11:46:21;1.00;;;1.00;;
35632;SDS011;21754;48.216;-1.628;2022-07-10T11:48:49;2.78;;;1.27;;
35632;SDS011;21754;48.216;-1.628;2022-07-10T11:51:37;1.13;;;1.10;;
35632;SDS011;21754;48.216;-1.628;2022-07-10T11:54:11;1.00;;;1.00;;
35632;SDS011;21754;48.216;-1.628;2022-07-10T11:56:41;0.90;;;0.60;;
35632;SDS011;21754;48.216;-1.628;2022-07-10T11:59:12;4.05;;;1.00;;
35632;SDS011;21754;48.216;-1.628;2022-07-10T12:01:41;0.90;;;0.90;;
35632;SDS011;21754;48.216;-1.628;2022-07-10T12:04:09;1.00;;;0.90;;
35632;SDS011;21754;48.216;-1.628;2022-07-10T12:06:38;3.03;;;0.82;;
35632;SDS011;21754;48.216;-1.628;2022-07-10T12:09:09;3.70;;;0.80;;
35632;SDS011;21754;48.216;-1.628;2022-07-10T12:11:38;1.38;;;0.70;;
35632;SDS011;21754;48.216;-1.628;2022-07-10T12:16:43;1.35;;;0.82;;
35632;SDS011;21754;48.216;-1.628;2022-07-10T12:19:14;0.80;;;0.80;;
35632;SDS011;21754;48.216;-1.628;2022-07-10T12:21:42;1.20;;;1.10;;
35632;SDS011;21754;48.216;-1.628;2022-07-10T12:24:09;1.10;;;1.10;;
35632;SDS011;21754;48.216;-1.628;2022-07-10T12:26:36;0.93;;;0.93;;
35632;SDS011;21754;48.216;-1.628;2022-07-10T12:29:10;0.95;;;0.80;;
35632;SDS011;21754;48.216;-1.628;2022-07-10T12:31:43;2.10;;;1.00;;
35632;SDS011;21754;48.216;-1.628;2022-07-10T12:34:10;1.60;;;1.00;;
35632;SDS011;21754;48.216;-1.628;2022-07-10T12:36:43;1.50;;;0.93;;
35632;SDS011;21754;48.216;-1.628;2022-07-10T12:39:13;1.13;;;1.03;;
35632;SDS011;21754;48.216;-1.628;2022-07-10T12:42:00;0.80;;;0.80;;
35632;SDS011;21754;48.216;-1.628;2022-07-10T12:44:34;1.05;;;1.05;;
35632;SDS011;21754;48.216;-1.628;2022-07-10T12:47:01;1.02;;;1.00;;
35632;SDS011;21754;48.216;-1.628;2022-07-10T12:52:21;1.15;;;0.90;;
35632;SDS011;21754;48.216;-1.628;2022-07-10T12:57:13;1.00;;;0.90;;
35632;SDS011;21754;48.216;-1.628;2022-07-10T12:59:39;1.98;;;1.33;;
35632;SDS011;21754;48.216;-1.628;2022-07-10T13:04:51;0.75;;;0.70;;
35632;SDS011;21754;48.216;-1.628;2022-07-10T13:07:18;7.28;;;0.90;;
35632;SDS011;21754;48.216;-1.628;2022-07-10T13:09:44;9.57;;;1.25;;
35632;SDS011;21754;48.216;-1.628;2022-07-10T13:12:12;1.08;;;1.05;;
35632;SDS011;21754;48.216;-1.628;2022-07-10T13:14:38;3.00;;;0.90;;
35632;SDS011;21754;48.216;-1.628;2022-07-10T13:17:03;1.63;;;1.00;;
35632;SDS011;21754;48.216;-1.628;2022-07-10T13:19:29;1.27;;;0.80;;
35632;SDS011;21754;48.216;-1.628;2022-07-10T13:21:55;0.98;;;0.90;;
35632;SDS011;21754;48.216;-1.628;2022-07-10T13:24:20;1.25;;;1.15;;
35632;SDS011;21754;48.216;-1.628;2022-07-10T13:26:46;1.15;;;0.98;;
35632;SDS011;21754;48.216;-1.628;2022-07-10T13:29:12;1.60;;;0.90;;
35632;SDS011;21754;48.216;-1.628;2022-07-10T13:31:37;0.80;;;0.80;;
35632;SDS011;21754;48.216;-1.628;2022-07-10T13:34:03;1.52;;;0.90;;
35632;SDS011;21754;48.216;-1.628;2022-07-10T13:36:28;2.75;;;1.02;;
35632;SDS011;21754;48.216;-1.628;2022-07-10T13:38:55;1.38;;;0.98;;
35632;SDS011;21754;48.216;-1.628;2022-07-10T13:41:21;1.73;;;0.80;;
35632;SDS011;21754;48.216;-1.628;2022-07-10T13:43:46;4.68;;;1.00;;
35632;SDS011;21754;48.216;-1.628;2022-07-10T13:46:12;1.20;;;0.90;;
35632;SDS011;21754;48.216;-1.628;2022-07-10T13:48:38;5.28;;;1.00;;
35632;SDS011;21754;48.216;-1.628;2022-07-10T13:51:04;3.15;;;0.90;;
35632;SDS011;21754;48.216;-1.628;2022-07-10T13:53:30;1.08;;;0.80;;
35632;SDS011;21754;48.216;-1.628;2022-07-10T13:55:55;1.20;;;0.90;;
35632;SDS011;21754;48.216;-1.628;2022-07-10T13:58:21;0.95;;;0.95;;
35632;SDS011;21754;48.216;-1.628;2022-07-10T14:00:48;1.67;;;1.00;;
35632;SDS011;21754;48.216;-1.628;2022-07-10T14:03:13;1.65;;;1.10;;
35632;SDS011;21754;48.216;-1.628;2022-07-10T14:05:39;1.48;;;1.15;;
35632;SDS011;21754;48.216;-1.628;2022-07-10T14:08:05;1.80;;;1.10;;
35632;SDS011;21754;48.216;-1.628;2022-07-10T14:10:31;2.25;;;1.13;;
35632;SDS011;21754;48.216;-1.628;2022-07-10T14:12:57;1.10;;;1.08;;
35632;SDS011;21754;48.216;-1.628;2022-07-10T14:15:23;1.73;;;1.23;;
35632;SDS011;21754;48.216;-1.628;2022-07-10T14:17:48;2.17;;;1.25;;
35632;SDS011;21754;48.216;-1.628;2022-07-10T14:20:15;3.22;;;1.13;;
35632;SDS011;21754;48.216;-1.628;2022-07-10T14:22:42;4.35;;;1.00;;
35632;SDS011;21754;48.216;-1.628;2022-07-10T14:25:11;2.03;;;0.80;;
35632;SDS011;21754;48.216;-1.628;2022-07-10T14:27:36;5.05;;;0.93;;
35632;SDS011;21754;48.216;-1.628;2022-07-10T14:30:03;0.90;;;0.90;;
35632;SDS011;21754;48.216;-1.628;2022-07-10T14:32:29;0.93;;;0.70;;
35632;SDS011;21754;48.216;-1.628;2022-07-10T14:34:55;1.38;;;1.00;;
35632;SDS011;21754;48.216;-1.628;2022-07-10T14:37:21;2.08;;;0.80;;
35632;SDS011;21754;48.216;-1.628;2022-07-10T14:39:47;1.13;;;0.70;;
35632;SDS011;21754;48.216;-1.628;2022-07-10T14:42:13;1.50;;;1.40;;
35632;SDS011;21754;48.216;-1.628;2022-07-10T14:44:38;2.45;;;1.02;;
35632;SDS011;21754;48.216;-1.628;2022-07-10T14:47:04;0.90;;;0.90;;
35632;SDS011;21754;48.216;-1.628;2022-07-10T14:49:29;0.90;;;0.90;;
35632;SDS011;21754;48.216;-1.628;2022-07-10T14:51:56;0.87;;;0.87;;
35632;SDS011;21754;48.216;-1.628;2022-07-10T14:54:21;0.93;;;0.90;;
35632;SDS011;21754;48.216;-1.628;2022-07-10T14:56:47;0.75;;;0.75;;
35632;SDS011;21754;48.216;-1.628;2022-07-10T14:59:13;1.10;;;1.00;;
35632;SDS011;21754;48.216;-1.628;2022-07-10T15:01:38;1.02;;;0.93;;
35632;SDS011;21754;48.216;-1.628;2022-07-10T15:04:04;1.27;;;0.95;;
35632;SDS011;21754;48.216;-1.628;2022-07-10T15:06:30;0.90;;;0.80;;
35632;SDS011;21754;48.216;-1.628;2022-07-10T15:08:56;1.40;;;1.30;;
35632;SDS011;21754;48.216;-1.628;2022-07-10T15:11:22;1.05;;;0.95;;
35632;SDS011;21754;48.216;-1.628;2022-07-10T15:13:50;1.23;;;1.00;;
35632;SDS011;21754;48.216;-1.628;2022-07-10T15:16:18;0.77;;;0.77;;
35632;SDS011;21754;48.216;-1.628;2022-07-10T15:18:44;2.15;;;1.00;;
35632;SDS011;21754;48.216;-1.628;2022-07-10T15:21:10;1.70;;;1.20;;
35632;SDS011;21754;48.216;-1.628;2022-07-10T15:23:36;2.00;;;1.20;;